createdAt,value
2019-05-19T00:00:50.125Z,9.23
2019-05-19T00:03:23.063Z,7.47
2019-05-19T00:05:54.576Z,8.65
2019-05-19T00:08:24.805Z,7.80
2019-05-19T00:10:55.676Z,8.18
2019-05-19T00:13:34.284Z,8.55
2019-05-19T00:16:06.533Z,8.75
2019-05-19T00:18:36.789Z,6.83
2019-05-19T00:21:11.293Z,8.15
2019-05-19T00:23:42.331Z,8.65
2019-05-19T00:26:12.498Z,8.35
2019-05-19T00:28:42.812Z,10.75
2019-05-19T00:31:15.074Z,10.98
2019-05-19T00:33:45.246Z,10.15
2019-05-19T00:36:19.622Z,10.78
2019-05-19T00:38:49.958Z,9.15
2019-05-19T00:41:23.681Z,8.43
2019-05-19T00:43:54.710Z,8.28
2019-05-19T00:46:25.394Z,8.50
2019-05-19T00:48:55.576Z,8.53
2019-05-19T00:51:26.335Z,7.72
2019-05-19T00:53:56.683Z,8.38
2019-05-19T00:56:27.974Z,9.43
2019-05-19T00:59:02.086Z,10.10
2019-05-19T01:01:32.638Z,8.33
2019-05-19T01:04:03.527Z,7.92
2019-05-19T01:06:34.092Z,7.33
2019-05-19T01:09:06.955Z,7.72
2019-05-19T01:11:37.558Z,7.37
2019-05-19T01:14:15.181Z,8.70
2019-05-19T01:16:43.900Z,7.90
2019-05-19T01:19:16.644Z,8.48
2019-05-19T01:21:54.214Z,8.28
2019-05-19T01:24:24.729Z,7.65
2019-05-19T01:26:55.306Z,8.15
2019-05-19T01:29:28.104Z,9.75
2019-05-19T01:31:58.546Z,8.33
2019-05-19T01:34:30.868Z,10.20
2019-05-19T01:37:02.258Z,9.43
2019-05-19T01:39:34.442Z,9.60
2019-05-19T01:42:09.300Z,9.25
2019-05-19T01:44:40.386Z,9.65
2019-05-19T01:47:11.835Z,6.92
2019-05-19T01:49:41.911Z,8.98
2019-05-19T01:52:13.675Z,8.60
2019-05-19T01:54:46.380Z,8.35
2019-05-19T01:57:17.743Z,8.53
2019-05-19T01:59:47.908Z,10.15
2019-05-19T02:02:18.440Z,8.25
2019-05-19T02:04:51.688Z,8.68
2019-05-19T02:07:22.564Z,9.63
2019-05-19T02:09:52.809Z,9.03
2019-05-19T02:12:23.472Z,9.35
2019-05-19T02:14:53.621Z,9.43
2019-05-19T02:17:23.748Z,9.33
2019-05-19T02:19:54.463Z,9.05
2019-05-19T02:22:26.505Z,9.10
2019-05-19T02:24:57.019Z,9.90
2019-05-19T02:27:27.464Z,8.68
2019-05-19T02:30:02.652Z,9.55
2019-05-19T02:32:39.785Z,8.90
2019-05-19T02:35:10.645Z,9.45
2019-05-19T02:37:42.656Z,8.23
2019-05-19T02:40:13.418Z,8.73
2019-05-19T02:42:48.833Z,7.92
2019-05-19T02:45:19.537Z,7.62
2019-05-19T02:47:52.375Z,8.40
2019-05-19T02:50:26.305Z,7.83
2019-05-19T02:53:02.384Z,8.35
2019-05-19T02:55:35.955Z,8.53
2019-05-19T02:58:09.705Z,7.72
2019-05-19T03:00:43.095Z,7.83
2019-05-19T03:03:13.656Z,8.55
2019-05-19T03:05:45.384Z,7.50
2019-05-19T03:08:18.734Z,8.55
2019-05-19T03:10:51.176Z,8.20
2019-05-19T03:13:23.265Z,9.40
2019-05-19T03:15:54.135Z,9.63
2019-05-19T03:18:27.067Z,10.88
2019-05-19T03:21:10.476Z,9.40
2019-05-19T03:23:32.050Z,11.03
2019-05-19T03:26:02.395Z,11.00
2019-05-19T03:28:32.656Z,10.70
2019-05-19T03:31:31.309Z,10.10
2019-05-19T03:34:02.580Z,9.88
2019-05-19T03:36:36.793Z,9.83
2019-05-19T03:39:07.851Z,10.48
2019-05-19T03:41:38.636Z,8.73
2019-05-19T03:44:13.194Z,8.70
2019-05-19T03:46:46.900Z,9.75
2019-05-19T03:49:17.678Z,9.15
2019-05-19T03:51:48.694Z,9.65
2019-05-19T03:54:19.788Z,8.95
2019-05-19T03:56:56.378Z,8.75
2019-05-19T03:59:29.819Z,9.10
2019-05-19T04:02:03.860Z,9.28
2019-05-19T04:04:34.409Z,9.08
2019-05-19T04:07:08.004Z,8.93
2019-05-19T04:09:38.590Z,9.03
2019-05-19T04:12:10.688Z,9.45
2019-05-19T04:14:44.804Z,8.35
2019-05-19T04:17:19.626Z,11.20
2019-05-19T04:19:51.003Z,9.80
2019-05-19T04:22:21.815Z,10.15
2019-05-19T04:24:52.562Z,9.80
2019-05-19T04:27:23.613Z,10.32
2019-05-19T04:29:57.314Z,11.03
2019-05-19T04:32:30.311Z,11.28
2019-05-19T04:35:02.473Z,12.13
2019-05-19T04:37:38.626Z,9.58
2019-05-19T04:40:10.601Z,8.70
2019-05-19T04:42:42.090Z,9.43
2019-05-19T04:45:19.030Z,10.53
2019-05-19T04:47:49.714Z,11.00
2019-05-19T04:50:22.644Z,11.78
2019-05-19T04:52:53.373Z,11.10
2019-05-19T04:55:23.581Z,11.93
2019-05-19T04:57:54.910Z,11.05
2019-05-19T05:00:25.545Z,11.18
2019-05-19T05:03:00.097Z,9.30
2019-05-19T05:05:32.516Z,8.95
2019-05-19T05:08:27.844Z,9.33
2019-05-19T05:10:59.338Z,10.70
2019-05-19T05:16:10.855Z,10.65
2019-05-19T05:18:41.456Z,10.90
2019-05-19T05:21:12.699Z,10.10
2019-05-19T05:23:46.224Z,10.43
2019-05-19T05:26:20.133Z,10.00
2019-05-19T05:28:54.614Z,10.85
2019-05-19T05:31:26.473Z,10.32
2019-05-19T05:33:58.350Z,9.63
2019-05-19T05:36:31.629Z,9.80
2019-05-19T05:39:05.767Z,8.93
2019-05-19T05:41:36.347Z,9.35
2019-05-19T05:44:07.702Z,9.13
2019-05-19T05:46:38.242Z,9.83
2019-05-19T05:49:09.133Z,10.18
2019-05-19T05:51:39.285Z,9.30
2019-05-19T05:54:12.686Z,9.90
2019-05-19T05:56:48.000Z,11.50
2019-05-19T05:59:19.702Z,9.38
2019-05-19T06:01:52.326Z,8.58
2019-05-19T06:04:23.446Z,9.43
2019-05-19T06:06:58.882Z,9.63
2019-05-19T06:09:30.129Z,9.05
2019-05-19T06:12:07.222Z,8.85
2019-05-19T06:14:37.945Z,10.03
2019-05-19T06:17:09.029Z,9.80
2019-05-19T06:19:41.136Z,8.60
2019-05-19T06:22:33.968Z,8.78
2019-05-19T06:25:04.724Z,9.10
2019-05-19T06:27:43.911Z,8.93
2019-05-19T06:30:17.886Z,10.38
2019-05-19T06:32:53.593Z,9.55
2019-05-19T06:35:28.339Z,9.28
2019-05-19T06:38:02.598Z,10.45
2019-05-19T06:40:33.015Z,9.50
2019-05-19T06:43:03.408Z,10.28
2019-05-19T06:45:33.527Z,11.60
2019-05-19T06:48:05.286Z,13.40
2019-05-19T06:50:40.599Z,12.65
2019-05-19T06:53:14.018Z,12.95
2019-05-19T06:55:41.044Z,12.53
2019-05-19T06:58:11.189Z,12.18
2019-05-19T07:00:41.406Z,11.90
2019-05-19T07:03:11.513Z,9.48
2019-05-19T07:05:41.906Z,9.53
2019-05-19T07:08:12.764Z,10.25
2019-05-19T07:10:42.848Z,13.90
2019-05-19T07:13:23.577Z,11.80
2019-05-19T07:15:56.565Z,12.50
2019-05-19T07:18:26.715Z,11.65
2019-05-19T07:21:00.094Z,10.10
2019-05-19T07:23:30.277Z,12.18
2019-05-19T07:26:00.395Z,11.18
2019-05-19T07:28:32.940Z,12.33
2019-05-19T07:31:03.455Z,12.00
2019-05-19T07:33:33.628Z,11.68
2019-05-19T07:36:05.241Z,11.55
2019-05-19T07:38:35.722Z,12.05
2019-05-19T07:41:06.597Z,11.53
2019-05-19T07:43:37.155Z,10.95
2019-05-19T07:46:08.789Z,12.68
2019-05-19T07:48:42.983Z,12.03
2019-05-19T07:51:13.091Z,11.25
2019-05-19T07:53:52.333Z,11.50
2019-05-19T07:56:24.982Z,10.68
2019-05-19T07:58:56.662Z,10.23
2019-05-19T08:01:29.366Z,9.43
2019-05-19T08:04:04.606Z,9.80
2019-05-19T08:06:35.131Z,9.23
2019-05-19T08:09:06.652Z,10.18
2019-05-19T08:11:38.346Z,10.60
2019-05-19T08:14:08.539Z,8.90
2019-05-19T08:16:38.656Z,10.80
2019-05-19T08:19:13.191Z,10.98
2019-05-19T08:21:46.058Z,12.55
2019-05-19T08:24:17.955Z,10.98
2019-05-19T08:26:48.564Z,12.10
2019-05-19T08:29:18.749Z,10.63
2019-05-19T08:31:49.060Z,11.10
2019-05-19T08:34:20.958Z,9.28
2019-05-19T08:36:52.072Z,10.35
2019-05-19T08:39:22.262Z,9.30
2019-05-19T08:41:57.087Z,9.95
2019-05-19T08:44:30.723Z,9.18
2019-05-19T08:47:02.033Z,9.40
2019-05-19T08:49:32.752Z,10.38
2019-05-19T08:52:05.150Z,9.40
2019-05-19T08:54:36.697Z,8.45
2019-05-19T08:57:08.606Z,8.60
2019-05-19T08:59:38.852Z,9.75
2019-05-19T09:02:10.517Z,7.80
2019-05-19T09:04:43.896Z,7.60
2019-05-19T09:07:16.879Z,7.97
2019-05-19T09:09:49.291Z,8.23
2019-05-19T09:12:22.624Z,8.13
2019-05-19T09:14:54.377Z,7.95
2019-05-19T09:17:47.584Z,8.35
2019-05-19T09:20:23.845Z,8.08
2019-05-19T09:22:56.715Z,6.60
2019-05-19T09:25:31.429Z,8.65
2019-05-19T09:28:44.237Z,8.13
2019-05-19T09:34:37.534Z,8.25
2019-05-19T09:37:37.300Z,7.62
2019-05-19T09:40:11.691Z,6.50
2019-05-19T09:42:44.382Z,7.80
2019-05-19T09:49:36.036Z,8.75
2019-05-19T09:52:07.126Z,7.53
2019-05-19T09:54:45.139Z,9.20
2019-05-19T09:57:15.543Z,9.35
2019-05-19T09:59:47.451Z,10.68
2019-05-19T10:02:22.724Z,8.45
2019-05-19T10:05:01.517Z,7.67
2019-05-19T10:07:38.873Z,8.35
2019-05-19T10:10:12.605Z,7.70
2019-05-19T10:12:48.483Z,7.90
2019-05-19T10:15:18.768Z,7.87
2019-05-19T10:18:41.940Z,6.77
2019-05-19T10:21:12.365Z,6.43
2019-05-19T10:23:42.865Z,6.40
2019-05-19T10:26:13.233Z,5.70
2019-05-19T10:28:43.424Z,6.33
2019-05-19T10:31:14.818Z,6.12
2019-05-19T10:33:47.013Z,5.70
2019-05-19T10:36:18.657Z,8.53
2019-05-19T10:38:48.925Z,5.83
2019-05-19T10:41:19.171Z,5.83
2019-05-19T10:43:51.938Z,4.80
2019-05-19T10:46:25.039Z,5.90
2019-05-19T10:48:57.030Z,4.90
2019-05-19T10:51:27.495Z,4.90
2019-05-19T10:53:58.115Z,5.80
2019-05-19T10:56:30.351Z,5.43
2019-05-19T10:59:02.003Z,4.97
2019-05-19T11:01:33.426Z,5.03
2019-05-19T11:04:04.632Z,5.80
2019-05-19T11:06:35.854Z,4.47
2019-05-19T11:09:07.815Z,6.07
2019-05-19T11:11:39.500Z,4.60
2019-05-19T11:14:09.667Z,5.60
2019-05-19T11:16:39.976Z,6.23
2019-05-19T11:19:12.262Z,6.17
2019-05-19T11:21:43.869Z,5.97
2019-05-19T11:24:15.891Z,6.57
2019-05-19T11:26:46.621Z,5.93
2019-05-19T11:29:21.249Z,5.20
2019-05-19T11:31:51.636Z,6.07
2019-05-19T11:34:21.864Z,5.57
2019-05-19T11:36:52.259Z,5.87
2019-05-19T11:39:27.167Z,5.10
2019-05-19T11:41:59.466Z,5.80
2019-05-19T11:44:29.849Z,5.53
2019-05-19T11:47:00.085Z,5.60
2019-05-19T11:49:30.747Z,5.40
2019-05-19T11:52:01.298Z,6.17
2019-05-19T11:54:31.521Z,5.43
2019-05-19T11:57:03.401Z,5.90
2019-05-19T11:59:33.819Z,5.60
2019-05-19T12:02:04.304Z,6.00
2019-05-19T12:04:35.061Z,4.70
2019-05-19T12:07:05.528Z,5.17
2019-05-19T12:09:36.607Z,5.80
2019-05-19T12:12:08.786Z,4.53
2019-05-19T12:14:41.369Z,5.03
2019-05-19T12:17:14.928Z,4.97
2019-05-19T12:19:47.698Z,5.17
2019-05-19T12:22:18.657Z,5.60
2019-05-19T12:24:49.457Z,5.70
2019-05-19T12:27:20.597Z,4.90
2019-05-19T12:29:51.408Z,5.30
2019-05-19T12:32:23.102Z,4.50
2019-05-19T12:34:53.494Z,4.70
2019-05-19T12:37:23.704Z,5.20
2019-05-19T12:39:54.142Z,5.13
2019-05-19T12:42:24.377Z,5.30
2019-05-19T12:44:54.866Z,4.90
2019-05-19T12:47:26.333Z,5.57
2019-05-19T12:49:59.466Z,4.60
2019-05-19T12:52:34.775Z,5.20
2019-05-19T12:55:09.064Z,4.83
2019-05-19T12:57:39.733Z,4.73
2019-05-19T13:00:10.524Z,4.70
2019-05-19T13:02:40.864Z,4.63
2019-05-19T13:05:12.088Z,4.10
2019-05-19T13:07:42.393Z,4.60
2019-05-19T13:10:16.473Z,4.03
2019-05-19T13:12:47.800Z,4.77
2019-05-19T13:15:20.286Z,4.40
2019-05-19T13:17:50.659Z,3.87
2019-05-19T13:20:29.988Z,4.13
2019-05-19T13:23:01.510Z,4.20
2019-05-19T13:25:54.685Z,4.30
2019-05-19T13:28:25.154Z,4.20
2019-05-19T13:33:34.166Z,3.87
2019-05-19T13:36:04.679Z,3.90
2019-05-19T13:38:35.289Z,4.83
2019-05-19T13:41:06.516Z,4.50
2019-05-19T13:43:37.531Z,4.17
2019-05-19T13:46:09.361Z,3.97
2019-05-19T13:48:40.286Z,4.10
2019-05-19T13:51:27.721Z,3.33
2019-05-19T13:53:58.702Z,4.20
2019-05-19T13:56:29.057Z,3.70
2019-05-19T13:59:02.485Z,3.20
2019-05-19T14:01:36.841Z,4.23
2019-05-19T14:04:07.152Z,3.87
2019-05-19T14:06:40.851Z,4.00
2019-05-19T14:09:11.234Z,3.70
2019-05-19T14:11:41.622Z,3.53
2019-05-19T14:14:12.235Z,3.97
2019-05-19T14:16:45.120Z,3.90
2019-05-19T14:19:15.979Z,3.77
2019-05-19T14:24:25.509Z,5.50
2019-05-19T14:26:55.968Z,3.67
2019-05-19T14:29:27.720Z,4.13
2019-05-19T14:31:59.380Z,3.70
2019-05-19T14:34:29.884Z,3.90
2019-05-19T14:37:00.100Z,3.70
2019-05-19T14:39:34.467Z,4.30
2019-05-19T14:42:15.491Z,3.87
2019-05-19T14:44:45.073Z,4.00
2019-05-19T14:47:20.492Z,3.70
2019-05-19T14:49:56.125Z,3.60
2019-05-19T14:52:30.746Z,4.13
2019-05-19T14:55:05.594Z,3.53
2019-05-19T14:57:44.406Z,3.50
2019-05-19T15:00:12.777Z,3.50
2019-05-19T15:02:44.349Z,3.87
2019-05-19T15:05:16.199Z,4.27
2019-05-19T15:07:48.627Z,4.17
2019-05-19T15:10:21.959Z,3.77
2019-05-19T15:12:58.624Z,3.83
2019-05-19T15:15:29.674Z,3.80
2019-05-19T15:18:03.124Z,4.17
2019-05-19T15:20:33.691Z,3.90
2019-05-19T15:23:18.813Z,3.47
2019-05-19T15:25:50.648Z,4.77
2019-05-19T15:28:31.232Z,4.50
2019-05-19T15:31:06.900Z,4.73
2019-05-19T15:33:38.812Z,4.77
2019-05-19T15:36:10.553Z,3.90
2019-05-19T15:38:49.696Z,4.70
2019-05-19T15:41:24.897Z,4.90
2019-05-19T15:43:55.367Z,3.83
2019-05-19T15:46:28.164Z,4.83
2019-05-19T15:49:04.816Z,4.80
2019-05-19T15:51:37.890Z,5.27
2019-05-19T15:54:10.245Z,5.23
2019-05-19T15:56:49.266Z,5.20
2019-05-19T15:59:32.793Z,5.00
2019-05-19T16:02:05.785Z,6.75
2019-05-19T16:04:40.236Z,6.10
2019-05-19T16:07:36.279Z,5.20
2019-05-19T16:10:09.455Z,4.93
2019-05-19T16:12:41.958Z,5.30
2019-05-19T16:15:19.111Z,5.03
2019-05-19T16:17:54.957Z,5.83
2019-05-19T16:20:29.305Z,5.40
2019-05-19T16:23:06.483Z,4.90
2019-05-19T16:25:36.718Z,4.40
2019-05-19T16:28:09.245Z,2.70
2019-05-19T16:30:39.716Z,1.17
2019-05-19T16:33:10.259Z,1.43
2019-05-19T16:35:40.682Z,1.67
2019-05-19T16:38:12.300Z,1.20
2019-05-19T16:40:46.104Z,1.32
2019-05-19T16:43:16.429Z,1.90
2019-05-19T16:45:51.771Z,2.40
2019-05-19T16:48:23.439Z,2.45
2019-05-19T16:50:57.069Z,2.15
2019-05-19T16:53:27.379Z,2.10
2019-05-19T16:55:59.304Z,2.55
2019-05-19T16:58:44.391Z,2.08
2019-05-19T17:01:05.449Z,4.10
2019-05-19T17:03:56.005Z,11.15
2019-05-19T17:06:26.744Z,6.53
2019-05-19T17:08:56.859Z,19.10
2019-05-19T17:11:30.858Z,10.78
2019-05-19T17:14:01.004Z,5.45
2019-05-19T17:16:33.572Z,3.85
2019-05-19T17:19:04.387Z,3.33
2019-05-19T17:21:42.685Z,3.15
2019-05-19T17:24:21.075Z,4.12
2019-05-19T17:26:54.174Z,3.25
2019-05-19T17:29:29.605Z,3.30
2019-05-19T17:32:40.865Z,3.02
2019-05-19T18:10:20.408Z,5.67
2019-05-19T18:24:35.289Z,6.70
2019-05-19T18:27:25.750Z,6.42
2019-05-19T18:38:21.823Z,6.10
2019-05-19T18:44:48.855Z,10.00
2019-05-19T18:47:51.815Z,8.90
2019-05-19T18:51:42.669Z,7.45
2019-05-19T18:55:09.502Z,6.37
2019-05-19T19:22:20.714Z,7.40
2019-05-19T19:36:38.531Z,9.73
2019-05-19T19:40:09.980Z,7.67
2019-05-19T19:43:18.547Z,6.10
2019-05-19T19:45:58.159Z,6.95
2019-05-19T19:48:33.127Z,7.90
2019-05-19T19:51:13.837Z,8.20
2019-05-19T19:53:47.238Z,8.55
2019-05-19T19:56:25.798Z,7.80
2019-05-19T19:59:04.006Z,7.25
2019-05-19T20:04:13.206Z,5.80
2019-05-19T20:06:52.967Z,6.25
2019-05-19T20:09:28.848Z,6.87
2019-05-19T20:18:40.607Z,5.53
2019-05-19T20:21:13.036Z,5.12
2019-05-19T20:24:06.028Z,5.42
2019-05-19T20:26:45.634Z,5.22
2019-05-19T20:29:22.410Z,5.35
2019-05-19T20:31:56.360Z,4.95
2019-05-19T20:34:28.097Z,4.17
2019-05-19T20:37:01.050Z,4.58
2019-05-19T20:39:33.821Z,5.05
2019-05-19T20:42:31.343Z,4.70
2019-05-19T20:45:03.657Z,4.22
2019-05-19T20:47:35.933Z,4.42
2019-05-19T20:50:07.531Z,3.52
2019-05-19T20:52:59.640Z,3.75
2019-05-19T20:55:32.211Z,3.40
2019-05-19T20:58:04.489Z,3.45
2019-05-19T21:00:49.431Z,3.80
2019-05-19T21:03:12.563Z,3.33
2019-05-19T21:05:46.382Z,4.40
2019-05-19T21:08:18.673Z,4.83
2019-05-19T21:10:48.833Z,4.08
2019-05-19T21:13:19.630Z,4.12
2019-05-19T21:15:55.834Z,4.47
2019-05-19T21:19:33.588Z,5.70
2019-05-19T21:22:18.222Z,5.35
2019-05-19T21:29:24.650Z,5.70
2019-05-19T22:03:33.693Z,4.45
2019-05-19T22:06:36.493Z,4.42
2019-05-19T22:09:49.033Z,4.33
2019-05-19T22:12:34.346Z,5.22
2019-05-19T22:15:09.584Z,5.20
2019-05-19T22:17:50.448Z,5.70
2019-05-19T22:20:29.947Z,5.08
2019-05-19T22:23:04.174Z,5.12
2019-05-19T22:25:38.171Z,5.35
2019-05-19T22:28:11.045Z,5.00
2019-05-19T22:30:42.207Z,5.72
2019-05-19T22:33:34.772Z,4.42
2019-05-19T22:36:07.793Z,4.12
2019-05-19T22:38:40.998Z,4.97
2019-05-19T22:41:18.791Z,4.65
2019-05-19T22:43:49.394Z,4.33
2019-05-19T22:46:21.896Z,4.45
2019-05-19T22:48:55.732Z,4.47
2019-05-19T22:51:30.492Z,4.65
2019-05-19T22:54:04.239Z,4.87
2019-05-19T22:56:35.996Z,3.45
2019-05-19T22:59:18.866Z,4.22
2019-05-19T23:01:51.331Z,2.95
2019-05-19T23:04:15.026Z,3.30
2019-05-19T23:06:45.622Z,3.05
2019-05-19T23:09:15.765Z,3.05
2019-05-19T23:11:45.867Z,3.72
2019-05-19T23:14:18.585Z,3.15
2019-05-19T23:16:48.835Z,3.62
2019-05-19T23:19:19.000Z,2.80
2019-05-19T23:21:53.006Z,3.37
2019-05-19T23:24:24.596Z,2.55
2019-05-19T23:26:54.682Z,3.12
2019-05-19T23:29:29.315Z,3.45
2019-05-19T23:32:07.008Z,2.60
2019-05-19T23:34:33.861Z,3.55
2019-05-19T23:37:05.993Z,2.52
2019-05-19T23:39:39.818Z,2.80
2019-05-19T23:42:12.595Z,2.22
2019-05-19T23:44:46.202Z,2.27
2019-05-19T23:47:18.073Z,2.15
2019-05-19T23:49:53.606Z,1.72
2019-05-19T23:52:24.661Z,2.10
2019-05-19T23:54:57.024Z,1.80
2019-05-19T23:57:31.704Z,1.95
